AirNav   Everest Fuels
 
 1637 users online  

MI96 Detroit Border Patrol Heliport
Detroit, Michigan, USA

GOING TO DETROIT?


FAA INFORMATION EFFECTIVE 10 SEPTEMBER 2020

Location

FAA Identifier: MI96
Lat/Long: 42-22-02.0000N 082-58-03.0000W
42-22.033333N 082-58.050000W
42.3672222,-82.9675000
(estimated)
Elevation: 586 ft. / 179 m
Time zone: UTC -4 (UTC -5 during Standard Time)
Zip code: 48214

Heliport Operations

Heliport use: Private use. Permission required prior to landing
Activation date: 11/2016
Control tower: no
ARTCC: CLEVELAND CENTER
FSS: LANSING FLIGHT SERVICE STATION
Attendance: 
Segmented circle: no

Heliport Communications

WX ASOS at DET (3 nm NW): PHONE 313-371-9696
WX AWOS-3 at VLL (14 nm NW): 119.475 (248-288-4649)
WX AWOS-3 at ONZ (18 nm SW): 119.675 (734-692-9686)
WX ASOS at DTW (19 nm SW): PHONE 734-955-5015

Nearby radio navigation aids

VOR radial/distance  VOR name  Freq  Var
DXOr068/20.0DETROIT VOR/DME113.4006W
SVMr098/27.9SALEM VORTAC114.3003W
CRLr052/29.0CARLETON VOR/DME115.7003W

 
NDB name  Hdg/Dist  Freq  Var  ID
GROSSE ILE034/18.041907WRYS .-. -.-- ...

Heliport Services

Runway Information

Helipad H1

Dimensions: 60 x 60 ft. / 18 x 18 m
Surface: concrete
Traffic pattern: leftleft

Heliport Ownership and Management from official FAA records

Ownership: Privately-owned
Owner: U.S. BORDER PATROL
11700 E. JEFFERSON AVE
DETROIT, MI 48214
Manager: DAVID B. YORK
11700 E. JEFFERSON AVE
DETROIT, MI 48214
Phone 313-926-4700
ADNL CTC FRED SCHWARK FACILITY OPERATIONS SPECIALIST 586-487-0279.

Additional Remarks

FOR CD CTC CLEVELAND ARTCC AT 440-774-0490.

Instrument Procedures

There are no published instrument procedures at MI96.

Some nearby airports with instrument procedures:

KDET - Coleman A Young Municipal Airport (3 nm NW)
KVLL - Oakland/Troy Airport (14 nm NW)
KMTC - Selfridge Air National Guard Base (16 nm N)
KONZ - Grosse Ile Municipal Airport (18 nm SW)
KDTW - Detroit Metropolitan Wayne County Airport (19 nm SW)
 
Loc | Ops | Rwys | IFR | FBO | Links
Com | Nav | Svcs | Stats | Notes
Aerial photo
No photo
 
Airport distance calculator
Flying to Detroit Border Patrol Heliport? Find the distance to fly.

From to MI96

Sunrise and sunset
Times for 28-Sep-2020
 Local
(UTC-4)
 Zulu
(UTC)
Morning civil twilight07:0011:00
Sunrise07:2811:28
Sunset19:1723:17
Evening civil twilight19:4523:45

Current date and time
Zulu (UTC)  28-Sep-2020 15:42:05
Local (UTC-4)  28-Sep-2020 11:42:05
 
METAR
KDET 
3nm NW 
281453Z 35005KT 10SM BKN015 OVC022 18/13 A2969 RMK AO2 SLP052 T01780133 50002
CYQG 
5nm S 
281500Z AUTO 32003KT 290V360 9SM OVC014 18/15 A2970 RMK SLP057 DENSITY ALT 1300FT
KVLL 
14nm NW 
281515Z AUTO 00000KT 10SM OVC014 17/14 A2971 RMK AO2 T01650138
KMTC 
16nm NE 
281456Z 32003KT 10SM OVC013 17/17 A2968 RMK AO2A SLP054 T01660166 53001
KONZ 
18nm SW 
281515Z AUTO 00000KT 10SM OVC012 17/15 A2969 RMK AO2 T01740150
KDTW 
18nm SW 
281453Z 36004KT 10SM OVC014 16/12 A2970 RMK AO2 SLP055 T01610122 50003 $
TAF
KDET 
3nm NW 
281125Z 2812/2912 32005KT P6SM BKN015 OVC020 FM281800 20010G18KT 3SM SHRA OVC012 FM282200 29012G20KT P6SM BKN012 OVC020 FM290300 24008KT P6SM SCT015 BKN025
CYQG 
5nm S 
281138Z 2812/2912 21005KT P6SM BKN030 BKN060 TEMPO 2812/2817 5SM -SHRA BR SCT008 BKN015 OVC025 FM281700 19012G22KT P6SM -SHRA SCT015 OVC025 PROB30 2818/2824 VRB20G35KT 11/2SM TSRA BR BKN008 OVC015CB FM290000 27012G22KT P6SM BKN008 BKN020 FM290700 24010G20KT P6SM OVC008 RMK FCST BASED ON AUTO OBS. NXT FCST BY 281800Z
KMTC 
16nm NE 
280900Z 2809/2915 30006KT 9999 FEW060 QNH2966INS BECMG 2812/2813 30006KT 6000 -SHRA OVC010 QNH2962INS BECMG 2821/2822 31010G15KT 6000 -SHRA OVC014 QNH2959INS BECMG 2903/2904 27009KT 9999 NSW BKN020 QNH2970INS BECMG 2913/2914 27010G15KT 8000 BR OVC020 QNH2983INS TX18/2811Z TN10/2905Z LAST NO AMDS AFT 2809 NEXT 2811
KDTW 
18nm SW 
281125Z 2812/2918 32005KT P6SM BKN015 OVC020 FM281800 20010G18KT 3SM SHRA OVC012 FM282200 29012G20KT P6SM BKN012 OVC020 FM290300 24008KT P6SM SCT015 BKN025 FM291300 25009KT P6SM BKN040
NOTAMs
Click for the latest NOTAMs
NOTAMs are issued by the DoD/FAA and will open in a separate window not controlled by AirNav.

 

 
 

Would you like to see your business listed on this page?

 If your business provides an interesting product or service to pilots, flight crews, aircraft, or users of the Detroit Border Patrol Heliport, you should consider listing it here.  To start the listing process, click on the button below
 
Add a business
 

Other Pages about Detroit Border Patrol Heliport

Update a link
 
Copyright © AirNav, LLC. All rights reserved. Privacy Policy  Contact